createdAt,value
2023-01-21T00:00:45.581Z,100505.09
2023-01-21T00:03:13.135Z,100508.66
2023-01-21T00:05:40.064Z,100510.63
2023-01-21T00:08:06.761Z,100494.16
2023-01-21T00:10:33.733Z,100495.03
2023-01-21T00:13:00.414Z,100494.09
2023-01-21T00:15:27.116Z,100495.28
2023-01-21T00:17:54.663Z,100498.69
2023-01-21T00:20:21.454Z,100501.28
2023-01-21T00:22:48.239Z,100492.22
2023-01-21T00:25:14.894Z,100488.81
2023-01-21T00:27:41.768Z,100482.00
2023-01-21T00:30:10.722Z,100478.75
2023-01-21T00:32:37.506Z,100472.97
2023-01-21T00:35:05.661Z,100477.06
2023-01-21T00:37:32.632Z,100477.22
2023-01-21T00:39:59.278Z,100456.63
2023-01-21T00:42:27.886Z,100472.31
2023-01-21T00:44:57.417Z,100483.75
2023-01-21T00:47:24.665Z,100468.25
2023-01-21T00:49:51.361Z,100465.50
2023-01-21T00:52:18.009Z,100463.06
2023-01-21T00:54:44.668Z,100466.47
2023-01-21T00:57:11.248Z,100470.69
2023-01-21T00:59:37.839Z,100468.16
2023-01-21T01:02:04.369Z,100468.34
2023-01-21T01:04:30.950Z,100466.63
2023-01-21T01:06:57.537Z,100457.94
2023-01-21T01:09:24.151Z,100461.16
2023-01-21T01:11:50.769Z,100455.13
2023-01-21T01:14:17.402Z,100454.34
2023-01-21T01:16:43.950Z,100458.69
2023-01-21T01:19:12.240Z,100451.97
2023-01-21T01:21:39.005Z,100446.59
2023-01-21T01:24:06.249Z,100452.13
2023-01-21T01:26:35.509Z,100448.84
2023-01-21T01:29:03.740Z,100438.53
2023-01-21T01:31:30.369Z,100445.44
2023-01-21T01:33:57.808Z,100442.22
2023-01-21T01:36:24.504Z,100435.22
2023-01-21T01:38:52.998Z,100434.34
2023-01-21T01:41:25.461Z,100423.22
2023-01-21T01:43:59.766Z,100421.59
2023-01-21T01:46:35.616Z,100420.09
2023-01-21T01:49:14.893Z,100418.06
2023-01-21T01:51:53.362Z,100407.00
2023-01-21T01:54:24.716Z,100406.16
2023-01-21T01:56:55.340Z,100397.28
2023-01-21T01:59:22.256Z,100402.59
2023-01-21T02:01:49.159Z,100381.03
2023-01-21T02:04:24.180Z,100385.00
2023-01-21T02:06:54.822Z,100385.00
2023-01-21T02:09:22.022Z,100382.09
2023-01-21T02:11:48.983Z,100381.31
2023-01-21T02:14:15.648Z,100372.72
2023-01-21T02:17:12.986Z,100369.59
2023-01-21T02:20:01.384Z,100365.25
2023-01-21T02:22:52.203Z,100366.09
2023-01-21T02:25:52.880Z,100361.84
2023-01-21T02:28:25.360Z,100352.13
2023-01-21T02:30:55.044Z,100352.22
2023-01-21T02:33:52.533Z,100347.19
2023-01-21T02:36:37.831Z,100334.75
2023-01-21T02:39:12.823Z,100330.41
2023-01-21T02:41:54.522Z,100323.78
2023-01-21T02:44:43.054Z,100331.03
2023-01-21T02:47:21.269Z,100310.56
2023-01-21T02:49:58.671Z,100306.28
2023-01-21T02:52:26.340Z,100306.28
2023-01-21T02:54:55.449Z,100303.56
2023-01-21T02:57:35.569Z,100302.63
2023-01-21T03:00:17.566Z,100297.59
2023-01-21T03:03:09.943Z,100302.63
2023-01-21T03:05:36.442Z,100295.91
2023-01-21T03:08:22.167Z,100289.13
2023-01-21T03:11:19.385Z,100285.63
2023-01-21T03:14:23.299Z,100283.84
2023-01-21T03:17:00.883Z,100275.22
2023-01-21T03:19:53.562Z,100274.28
2023-01-21T03:22:25.014Z,100273.44
2023-01-21T03:24:53.500Z,100272.41
2023-01-21T03:27:24.812Z,100262.84
2023-01-21T03:29:57.543Z,100265.59
2023-01-21T03:32:27.813Z,100263.81
2023-01-21T03:34:56.659Z,100249.25
2023-01-21T03:37:42.095Z,100256.06
2023-01-21T03:40:16.172Z,100250.13
2023-01-21T03:42:44.893Z,100258.16
2023-01-21T03:45:12.127Z,100251.34
2023-01-21T03:47:43.191Z,100255.78
2023-01-21T03:50:17.021Z,100256.63
2023-01-21T03:52:44.798Z,100253.28
2023-01-21T03:55:13.406Z,100250.84
2023-01-21T03:57:40.272Z,100251.72
2023-01-21T04:00:08.270Z,100248.13
2023-01-21T04:02:34.916Z,100247.25
2023-01-21T04:05:01.480Z,100242.81
2023-01-21T04:07:28.142Z,100234.34
2023-01-21T04:09:54.851Z,100243.19
2023-01-21T04:12:21.442Z,100248.78
2023-01-21T04:14:48.012Z,100253.13
2023-01-21T04:17:14.605Z,100253.88
2023-01-21T04:19:41.196Z,100258.31
2023-01-21T04:22:07.847Z,100243.97
2023-01-21T04:24:34.880Z,100262.56
2023-01-21T04:27:01.461Z,100270.47
2023-01-21T04:29:28.163Z,100262.56
2023-01-21T04:31:55.076Z,100259.91
2023-01-21T04:34:21.678Z,100259.91
2023-01-21T04:36:48.263Z,100255.53
2023-01-21T04:39:14.933Z,100249.50
2023-01-21T04:41:41.477Z,100267.94
2023-01-21T04:44:08.064Z,100267.06
2023-01-21T04:46:34.723Z,100257.25
2023-01-21T04:49:01.355Z,100258.56
2023-01-21T04:51:27.932Z,100269.97
2023-01-21T04:53:54.548Z,100272.06
2023-01-21T04:56:21.410Z,100279.63
2023-01-21T04:58:47.962Z,100275.09
2023-01-21T05:01:14.584Z,100266.47
2023-01-21T05:03:41.310Z,100273.66
2023-01-21T05:06:07.888Z,100268.38
2023-01-21T05:08:34.508Z,100274.69
2023-01-21T05:11:01.118Z,100266.78
2023-01-21T05:13:27.709Z,100275.16
2023-01-21T05:15:54.340Z,100276.22
2023-01-21T05:18:20.990Z,100278.09
2023-01-21T05:20:47.807Z,100271.97
2023-01-21T05:23:14.411Z,100272.88
2023-01-21T05:25:40.976Z,100270.34
2023-01-21T05:28:08.216Z,100265.06
2023-01-21T05:30:34.912Z,100274.78
2023-01-21T05:33:01.577Z,100282.25
2023-01-21T05:35:28.148Z,100283.94
2023-01-21T05:37:54.774Z,100273.38
2023-01-21T05:40:21.607Z,100278.66
2023-01-21T05:42:48.245Z,100279.53
2023-01-21T05:45:15.263Z,100253.19
2023-01-21T05:47:41.973Z,100265.16
2023-01-21T05:50:09.470Z,100280.38
2023-01-21T05:52:36.253Z,100283.22
2023-01-21T05:55:03.747Z,100282.19
2023-01-21T05:57:31.217Z,100274.38
2023-01-21T05:59:57.974Z,100265.47
2023-01-21T06:02:25.409Z,100269.16
2023-01-21T06:04:52.111Z,100277.84
2023-01-21T06:07:18.888Z,100286.00
2023-01-21T06:09:45.471Z,100279.94
2023-01-21T06:12:12.028Z,100288.72
2023-01-21T06:14:38.736Z,100293.44
2023-01-21T06:17:05.537Z,100298.22
2023-01-21T06:19:32.140Z,100291.88
2023-01-21T06:21:58.744Z,100301.53
2023-01-21T06:24:25.330Z,100298.47
2023-01-21T06:26:53.321Z,100303.00
2023-01-21T06:29:19.954Z,100294.97
2023-01-21T06:31:46.788Z,100307.16
2023-01-21T06:34:13.664Z,100302.34
2023-01-21T06:36:43.249Z,100307.81
2023-01-21T06:39:10.917Z,100310.38
2023-01-21T06:41:37.966Z,100318.41
2023-01-21T06:44:05.547Z,100311.88
2023-01-21T06:46:32.270Z,100320.13
2023-01-21T06:48:59.292Z,100333.53
2023-01-21T06:51:26.128Z,100324.84
2023-01-21T06:53:53.531Z,100331.25
2023-01-21T06:56:21.351Z,100334.66
2023-01-21T06:58:48.277Z,100345.97
2023-01-21T07:01:15.078Z,100345.97
2023-01-21T07:03:41.674Z,100344.97
2023-01-21T07:06:08.332Z,100348.06
2023-01-21T07:08:34.904Z,100351.19
2023-01-21T07:11:01.566Z,100357.91
2023-01-21T07:13:28.137Z,100355.75
2023-01-21T07:16:00.617Z,100353.78
2023-01-21T07:18:27.475Z,100356.25
2023-01-21T07:20:54.159Z,100364.47
2023-01-21T07:23:20.824Z,100360.28
2023-01-21T07:25:47.429Z,100366.69
2023-01-21T07:28:14.040Z,100365.25
2023-01-21T07:30:40.993Z,100366.22
2023-01-21T07:33:09.122Z,100374.34
2023-01-21T07:35:36.499Z,100362.91
2023-01-21T07:38:03.051Z,100364.56
2023-01-21T07:40:30.311Z,100368.06
2023-01-21T07:42:57.020Z,100369.81
2023-01-21T07:45:24.026Z,100372.22
2023-01-21T07:47:50.692Z,100364.84
2023-01-21T07:50:17.577Z,100375.41
2023-01-21T07:52:44.168Z,100378.28
2023-01-21T07:55:12.554Z,100375.97
2023-01-21T07:57:39.935Z,100371.31
2023-01-21T08:00:08.386Z,100384.91
2023-01-21T08:02:35.247Z,100382.34
2023-01-21T08:05:01.940Z,100388.44
2023-01-21T08:07:29.071Z,100378.78
2023-01-21T08:09:57.763Z,100377.31
2023-01-21T08:12:27.056Z,100387.06
2023-01-21T08:14:53.919Z,100386.31
2023-01-21T08:17:20.492Z,100390.91
2023-01-21T08:19:47.094Z,100385.19
2023-01-21T08:22:13.649Z,100392.53
2023-01-21T08:24:40.245Z,100384.78
2023-01-21T08:27:06.925Z,100389.25
2023-01-21T08:29:33.571Z,100398.88
2023-01-21T08:32:00.424Z,100403.69
2023-01-21T08:34:27.128Z,100401.09
2023-01-21T08:36:53.794Z,100403.63
2023-01-21T08:39:20.611Z,100401.53
2023-01-21T08:41:47.237Z,100409.38
2023-01-21T08:44:13.833Z,100408.09
2023-01-21T08:46:40.421Z,100412.94
2023-01-21T08:49:07.282Z,100426.22
2023-01-21T08:51:33.975Z,100421.09
2023-01-21T08:54:00.868Z,100423.06
2023-01-21T08:56:28.750Z,100423.59
2023-01-21T08:58:57.193Z,100432.44
2023-01-21T09:01:25.973Z,100429.78
2023-01-21T09:03:56.787Z,100431.81
2023-01-21T09:06:24.598Z,100430.31
2023-01-21T09:08:51.217Z,100436.94
2023-01-21T09:11:17.855Z,100442.75
2023-01-21T09:13:44.874Z,100443.25
2023-01-21T09:16:19.892Z,100450.75
2023-01-21T09:18:47.607Z,100435.19
2023-01-21T09:21:15.025Z,100451.59
2023-01-21T09:23:42.092Z,100448.69
2023-01-21T09:26:12.783Z,100454.22
2023-01-21T09:28:42.317Z,100450.06
2023-01-21T09:31:14.562Z,100460.28
2023-01-21T09:33:46.290Z,100460.97
2023-01-21T09:36:19.071Z,100441.78
2023-01-21T09:38:47.078Z,100455.41
2023-01-21T09:41:30.372Z,100459.41
2023-01-21T09:44:01.388Z,100453.44
2023-01-21T09:46:49.641Z,100445.41
2023-01-21T09:49:25.068Z,100436.53
2023-01-21T09:52:20.289Z,100437.69
2023-01-21T09:54:47.195Z,100442.22
2023-01-21T09:57:34.615Z,100430.50
2023-01-21T10:00:19.609Z,100433.16
2023-01-21T10:02:47.301Z,100429.16
2023-01-21T10:05:41.904Z,100432.06
2023-01-21T10:08:17.424Z,100424.16
2023-01-21T10:11:05.850Z,100417.00
2023-01-21T10:13:35.366Z,100417.22
2023-01-21T10:16:19.780Z,100417.66
2023-01-21T10:18:51.250Z,100410.59
2023-01-21T10:21:38.923Z,100409.38
2023-01-21T10:24:26.274Z,100410.34
2023-01-21T10:26:54.236Z,100401.00
2023-01-21T10:29:24.476Z,100407.34
2023-01-21T10:32:04.009Z,100404.72
2023-01-21T10:34:32.394Z,100394.53
2023-01-21T10:37:23.575Z,100383.38
2023-01-21T10:40:12.150Z,100375.06
2023-01-21T10:42:49.819Z,100374.50
2023-01-21T10:45:31.531Z,100376.63
2023-01-21T10:48:41.822Z,100369.69
2023-01-21T10:51:17.461Z,100364.09
2023-01-21T10:54:02.303Z,100359.47
2023-01-21T10:57:12.148Z,100352.44
2023-01-21T10:59:41.312Z,100354.09
2023-01-21T11:02:07.876Z,100356.09
2023-01-21T11:04:36.676Z,100348.22
2023-01-21T11:07:05.250Z,100349.19
2023-01-21T11:09:33.367Z,100343.50
2023-01-21T11:12:01.514Z,100337.84
2023-01-21T11:14:28.113Z,100332.00
2023-01-21T11:16:55.529Z,100336.94
2023-01-21T11:19:23.684Z,100333.69
2023-01-21T11:22:20.825Z,100320.81
2023-01-21T11:24:51.896Z,100320.63
2023-01-21T11:27:38.992Z,100323.81
2023-01-21T11:30:21.096Z,100323.59
2023-01-21T11:32:54.216Z,100309.41
2023-01-21T11:35:23.090Z,100305.88
2023-01-21T11:37:49.764Z,100300.16
2023-01-21T11:40:25.277Z,100304.06
2023-01-21T11:42:55.030Z,100309.50
2023-01-21T11:45:24.551Z,100304.34
2023-01-21T11:47:52.160Z,100300.19
2023-01-21T11:50:36.358Z,100296.31
2023-01-21T11:53:09.123Z,100297.50
2023-01-21T11:55:50.548Z,100289.50
2023-01-21T11:58:38.761Z,100285.28
2023-01-21T12:01:19.222Z,100275.97
2023-01-21T12:03:53.325Z,100276.09
2023-01-21T12:06:27.354Z,100281.75
2023-01-21T12:08:57.935Z,100272.63
2023-01-21T12:11:28.348Z,100261.66
2023-01-21T12:14:22.869Z,100265.81
2023-01-21T12:16:58.504Z,100263.47
2023-01-21T12:19:47.162Z,100259.84
2023-01-21T12:22:16.859Z,100264.22
2023-01-21T12:25:02.088Z,100261.25
2023-01-21T12:28:10.060Z,100257.25
2023-01-21T12:30:43.924Z,100262.69
2023-01-21T12:33:31.584Z,100261.91
2023-01-21T12:36:04.285Z,100251.00
2023-01-21T12:38:46.508Z,100251.63
2023-01-21T12:41:40.631Z,100248.88
2023-01-21T12:44:31.591Z,100253.94
2023-01-21T12:47:04.992Z,100248.03
2023-01-21T12:49:46.710Z,100249.41
2023-01-21T12:52:59.495Z,100249.38
2023-01-21T12:55:51.318Z,100248.31
2023-01-21T12:58:25.156Z,100230.25
2023-01-21T13:00:54.700Z,100253.44
2023-01-21T13:03:37.544Z,100255.09
2023-01-21T13:06:14.903Z,100247.69
2023-01-21T13:09:07.667Z,100260.50
2023-01-21T13:11:47.537Z,100253.78
2023-01-21T13:14:23.249Z,100257.50
2023-01-21T13:17:03.688Z,100241.00
2023-01-21T13:19:30.268Z,100256.63
2023-01-21T13:22:22.148Z,100259.72
2023-01-21T13:25:16.758Z,100260.88
2023-01-21T13:28:05.303Z,100266.75
2023-01-21T13:31:01.869Z,100276.50
2023-01-21T13:33:44.281Z,100275.66
2023-01-21T13:36:29.818Z,100277.16
2023-01-21T13:39:14.690Z,100277.69
2023-01-21T13:41:41.216Z,100278.59
2023-01-21T13:44:19.804Z,100276.13
2023-01-21T13:46:58.703Z,100278.44
2023-01-21T13:49:44.597Z,100284.91
2023-01-21T13:52:32.198Z,100292.97
2023-01-21T13:55:21.676Z,100297.59
2023-01-21T13:58:14.282Z,100301.84
2023-01-21T14:00:50.584Z,100296.19
2023-01-21T14:03:37.056Z,100311.19
2023-01-21T14:06:26.075Z,100309.75
2023-01-21T14:09:04.293Z,100307.50
2023-01-21T14:11:42.818Z,100312.03
2023-01-21T14:14:54.570Z,100321.06
2023-01-21T14:17:46.658Z,100321.88
2023-01-21T14:20:48.330Z,100333.16
2023-01-21T14:23:36.932Z,100325.69
2023-01-21T14:26:22.164Z,100337.41
2023-01-21T14:29:10.598Z,100340.22
2023-01-21T14:31:47.325Z,100333.31
2023-01-21T14:34:24.009Z,100335.97
2023-01-21T14:37:03.165Z,100338.66
2023-01-21T14:39:52.696Z,100338.25
2023-01-21T14:42:26.341Z,100350.38
2023-01-21T14:44:53.655Z,100348.38
2023-01-21T14:47:28.892Z,100346.84
2023-01-21T14:49:57.660Z,100355.41
2023-01-21T14:52:36.633Z,100364.25
2023-01-21T14:55:24.115Z,100360.72
2023-01-21T14:57:56.983Z,100370.63
2023-01-21T15:00:30.618Z,100375.09
2023-01-21T15:03:28.740Z,100385.81
2023-01-21T15:06:00.353Z,100381.81
2023-01-21T15:08:46.151Z,100386.00
2023-01-21T15:11:27.137Z,100389.66
2023-01-21T15:14:19.765Z,100387.53
2023-01-21T15:16:47.303Z,100401.56
2023-01-21T15:19:16.766Z,100397.16
2023-01-21T15:21:59.833Z,100402.09
2023-01-21T15:24:30.413Z,100411.94
2023-01-21T15:27:22.443Z,100421.41
2023-01-21T15:29:55.294Z,100416.59
2023-01-21T15:32:41.235Z,100416.72
2023-01-21T15:35:36.824Z,100420.06
2023-01-21T15:38:15.468Z,100426.91
2023-01-21T15:40:46.686Z,100422.09
2023-01-21T15:43:30.520Z,100424.06
2023-01-21T15:46:26.322Z,100432.59
2023-01-21T15:49:05.748Z,100425.09
2023-01-21T15:51:51.130Z,100428.03
2023-01-21T15:54:44.344Z,100431.63
2023-01-21T15:57:29.733Z,100430.06
2023-01-21T16:00:14.587Z,100430.19
2023-01-21T16:02:58.053Z,100428.03
2023-01-21T16:05:24.869Z,100432.53
2023-01-21T16:08:09.612Z,100436.16
2023-01-21T16:10:41.582Z,100433.75
2023-01-21T16:13:25.058Z,100430.03
2023-01-21T16:16:09.943Z,100444.56
2023-01-21T16:18:59.441Z,100443.72
2023-01-21T16:21:49.332Z,100436.66
2023-01-21T16:24:19.164Z,100428.34
2023-01-21T16:26:46.137Z,100436.22
2023-01-21T16:29:14.819Z,100430.88
2023-01-21T16:31:50.862Z,100435.75
2023-01-21T16:34:30.875Z,100448.38
2023-01-21T16:36:58.126Z,100443.53
2023-01-21T16:39:24.863Z,100449.59
2023-01-21T16:42:03.113Z,100439.19
2023-01-21T16:44:32.478Z,100437.47
2023-01-21T16:46:59.202Z,100443.09
2023-01-21T16:49:26.039Z,100437.53
2023-01-21T16:51:57.716Z,100443.72
2023-01-21T16:54:26.772Z,100451.75
2023-01-21T16:57:04.293Z,100444.81
2023-01-21T16:59:41.979Z,100454.91
2023-01-21T17:02:17.798Z,100453.19
2023-01-21T17:04:44.494Z,100456.94
2023-01-21T17:07:44.831Z,100464.94
2023-01-21T17:10:21.611Z,100463.25
2023-01-21T17:12:59.323Z,100466.88
2023-01-21T17:15:31.717Z,100464.72
2023-01-21T17:18:01.087Z,100474.66
2023-01-21T17:20:36.583Z,100468.16
2023-01-21T17:23:26.418Z,100459.91
2023-01-21T17:26:03.361Z,100456.16
2023-01-21T17:28:30.065Z,100477.63
2023-01-21T17:31:15.852Z,100481.50
2023-01-21T17:33:44.135Z,100478.84
2023-01-21T17:36:16.105Z,100477.88
2023-01-21T17:38:45.983Z,100483.06
2023-01-21T17:41:32.269Z,100473.53
2023-01-21T17:44:00.544Z,100484.53
2023-01-21T17:46:27.462Z,100479.19
2023-01-21T17:49:17.125Z,100492.44
2023-01-21T17:51:44.744Z,100482.84
2023-01-21T17:54:26.010Z,100487.91
2023-01-21T17:56:57.826Z,100495.44
2023-01-21T17:59:41.714Z,100498.81
2023-01-21T18:02:14.564Z,100501.75
2023-01-21T18:04:41.743Z,100502.09
2023-01-21T18:07:29.998Z,100500.03
2023-01-21T18:10:02.364Z,100514.31
2023-01-21T18:12:29.065Z,100508.13
2023-01-21T18:14:55.695Z,100508.25
2023-01-21T18:17:24.697Z,100517.59
2023-01-21T18:19:51.437Z,100528.03
2023-01-21T18:22:28.503Z,100525.25
2023-01-21T18:24:55.381Z,100532.38
2023-01-21T18:27:26.131Z,100533.38
2023-01-21T18:29:53.442Z,100532.50
2023-01-21T18:32:20.540Z,100538.69
2023-01-21T18:34:47.225Z,100540.03
2023-01-21T18:37:16.650Z,100529.25
2023-01-21T18:39:43.381Z,100541.84
2023-01-21T18:42:19.093Z,100539.91
2023-01-21T18:44:46.771Z,100534.09
2023-01-21T18:47:15.502Z,100549.34
2023-01-21T18:49:42.805Z,100543.16
2023-01-21T18:52:13.934Z,100543.16
2023-01-21T18:54:40.620Z,100534.53
2023-01-21T18:57:20.098Z,100540.84
2023-01-21T18:59:46.798Z,100540.59
2023-01-21T19:02:20.960Z,100537.78
2023-01-21T19:04:48.035Z,100546.16
2023-01-21T19:07:16.367Z,100544.97
2023-01-21T19:09:46.009Z,100545.19
2023-01-21T19:12:14.390Z,100541.91
2023-01-21T19:14:41.032Z,100550.53
2023-01-21T19:17:15.496Z,100549.31
2023-01-21T19:19:42.143Z,100550.25
2023-01-21T19:22:14.033Z,100551.63
2023-01-21T19:24:41.076Z,100562.91
2023-01-21T19:27:19.118Z,100561.44
2023-01-21T19:29:45.701Z,100570.28
2023-01-21T19:32:15.500Z,100575.41
2023-01-21T19:34:42.485Z,100572.00
2023-01-21T19:37:17.201Z,100564.84
2023-01-21T19:39:43.806Z,100583.03
2023-01-21T19:42:12.189Z,100589.00
2023-01-21T19:44:41.524Z,100589.72
2023-01-21T19:47:22.501Z,100589.81
2023-01-21T19:49:49.236Z,100591.03
2023-01-21T19:52:16.330Z,100602.28
2023-01-21T19:54:43.016Z,100605.06
2023-01-21T19:57:16.716Z,100611.34
2023-01-21T19:59:50.614Z,100613.75
2023-01-21T20:02:17.294Z,100620.81
2023-01-21T20:04:44.525Z,100623.81
2023-01-21T20:07:14.811Z,100625.84
2023-01-21T20:09:41.608Z,100629.84
2023-01-21T20:12:10.626Z,100634.31
2023-01-21T20:14:37.438Z,100641.31
2023-01-21T20:17:04.383Z,100638.66
2023-01-21T20:19:31.355Z,100647.19
2023-01-21T20:22:02.748Z,100637.72
2023-01-21T20:24:33.494Z,100638.78
2023-01-21T20:27:02.210Z,100651.50
2023-01-21T20:29:28.741Z,100650.69
2023-01-21T20:31:56.562Z,100653.06
2023-01-21T20:34:23.250Z,100647.44
2023-01-21T20:36:51.811Z,100658.53
2023-01-21T20:39:18.458Z,100655.75
2023-01-21T20:41:45.360Z,100649.59
2023-01-21T20:44:12.152Z,100640.97
2023-01-21T20:46:39.472Z,100658.03
2023-01-21T20:49:06.300Z,100657.19
2023-01-21T20:51:33.058Z,100663.69
2023-01-21T20:54:01.650Z,100664.63
2023-01-21T20:56:33.114Z,100644.00
2023-01-21T20:59:00.725Z,100652.47
2023-01-21T21:01:28.083Z,100646.94
2023-01-21T21:03:54.711Z,100642.34
2023-01-21T21:06:27.150Z,100648.41
2023-01-21T21:08:54.304Z,100649.25
2023-01-21T21:11:21.309Z,100664.78
2023-01-21T21:13:52.312Z,100678.22
2023-01-21T21:16:23.359Z,100693.56
2023-01-21T21:18:50.425Z,100673.94
2023-01-21T21:21:18.130Z,100679.69
2023-01-21T21:23:46.713Z,100682.59
2023-01-21T21:26:22.207Z,100673.88
2023-01-21T21:28:49.746Z,100678.00
2023-01-21T21:31:17.547Z,100689.59
2023-01-21T21:33:44.898Z,100681.84
2023-01-21T21:36:21.148Z,100678.22
2023-01-21T21:38:49.062Z,100693.13
2023-01-21T21:41:40.324Z,100691.66
2023-01-21T21:44:08.120Z,100690.06
2023-01-21T21:46:53.525Z,100693.44
2023-01-21T21:49:20.166Z,100696.75
2023-01-21T21:51:46.884Z,100688.00
2023-01-21T21:54:15.111Z,100693.88
2023-01-21T21:56:43.191Z,100689.59
2023-01-21T21:59:13.731Z,100697.38
2023-01-21T22:01:43.843Z,100692.72
2023-01-21T22:04:11.329Z,100696.13
2023-01-21T22:06:40.039Z,100701.44
2023-01-21T22:09:07.598Z,100702.50
2023-01-21T22:11:34.433Z,100701.44
2023-01-21T22:14:05.005Z,100701.84
2023-01-21T22:16:32.263Z,100704.41
2023-01-21T22:19:00.334Z,100709.72
2023-01-21T22:21:29.358Z,100710.47
2023-01-21T22:23:56.115Z,100708.13
2023-01-21T22:26:24.640Z,100706.31
2023-01-21T22:28:51.445Z,100707.41
2023-01-21T22:31:21.367Z,100717.44
2023-01-21T22:33:48.756Z,100701.25
2023-01-21T22:36:19.762Z,100708.19
2023-01-21T22:38:47.103Z,100708.50
2023-01-21T22:41:16.060Z,100707.88
2023-01-21T22:43:44.882Z,100716.63
2023-01-21T22:46:13.470Z,100713.66
2023-01-21T22:48:41.482Z,100717.25
2023-01-21T22:51:12.904Z,100718.66
2023-01-21T22:53:46.129Z,100721.34
2023-01-21T22:56:15.169Z,100727.47
2023-01-21T22:58:42.686Z,100721.34
2023-01-21T23:01:21.193Z,100717.94
2023-01-21T23:03:47.967Z,100713.34
2023-01-21T23:06:14.722Z,100721.22
2023-01-21T23:08:41.438Z,100716.22
2023-01-21T23:11:09.179Z,100719.84
2023-01-21T23:13:36.263Z,100724.09
2023-01-21T23:16:07.203Z,100729.41
2023-01-21T23:18:36.207Z,100720.59
2023-01-21T23:21:08.256Z,100723.25
2023-01-21T23:23:37.335Z,100715.34
2023-01-21T23:26:05.718Z,100721.53
2023-01-21T23:28:33.521Z,100722.41
2023-01-21T23:31:15.753Z,100719.63
2023-01-21T23:33:42.784Z,100716.75
2023-01-21T23:36:13.202Z,100722.81
2023-01-21T23:38:41.173Z,100718.31
2023-01-21T23:41:10.011Z,100713.84
2023-01-21T23:43:37.147Z,100721.72
2023-01-21T23:46:08.940Z,100710.44
2023-01-21T23:48:35.568Z,100726.97
2023-01-21T23:51:07.856Z,100718.97
2023-01-21T23:53:35.022Z,100721.53
2023-01-21T23:56:12.239Z,100721.53
2023-01-21T23:58:39.251Z,100726.84
